createdAt,value
2019-02-09T00:02:11.552Z,4.37
2019-02-09T00:04:41.824Z,4.30
2019-02-09T00:07:12.041Z,4.20
2019-02-09T00:09:42.674Z,4.03
2019-02-09T00:12:12.577Z,4.23
2019-02-09T00:14:42.902Z,3.90
2019-02-09T00:17:13.440Z,4.30
2019-02-09T00:19:43.763Z,4.03
2019-02-09T00:22:14.081Z,3.63
2019-02-09T00:24:44.420Z,4.03
2019-02-09T00:27:14.337Z,3.73
2019-02-09T00:29:46.423Z,3.37
2019-02-09T00:32:15.684Z,3.03
2019-02-09T00:34:45.539Z,3.00
2019-02-09T00:37:15.828Z,2.80
2019-02-09T00:39:45.696Z,3.47
2019-02-09T00:42:15.624Z,3.57
2019-02-09T00:44:46.177Z,3.23
2019-02-09T00:47:16.117Z,3.50
2019-02-09T00:49:46.621Z,3.87
2019-02-09T00:52:16.583Z,3.33
2019-02-09T00:54:46.545Z,3.20
2019-02-09T00:57:16.403Z,3.17
2019-02-09T00:59:53.802Z,3.90
2019-02-09T01:02:18.614Z,3.27
2019-02-09T01:04:48.557Z,3.33
2019-02-09T01:07:19.820Z,3.67
2019-02-09T01:09:50.044Z,4.03
2019-02-09T01:12:19.981Z,3.73
2019-02-09T01:14:50.091Z,3.27
2019-02-09T01:17:19.936Z,3.73
2019-02-09T01:19:50.113Z,3.97
2019-02-09T01:22:20.250Z,3.10
2019-02-09T01:24:50.560Z,3.70
2019-02-09T01:27:20.464Z,3.00
2019-02-09T01:29:51.004Z,3.53
2019-02-09T01:32:20.971Z,3.43
2019-02-09T01:34:51.956Z,3.00
2019-02-09T01:37:22.613Z,2.43
2019-02-09T01:39:52.569Z,2.57
2019-02-09T01:42:22.951Z,3.17
2019-02-09T01:44:52.903Z,2.93
2019-02-09T01:47:22.751Z,2.87
2019-02-09T01:49:52.656Z,1.80
2019-02-09T01:52:22.935Z,2.53
2019-02-09T01:54:52.921Z,2.37
2019-02-09T01:57:23.777Z,2.40
2019-02-09T01:59:53.732Z,2.33
2019-02-09T02:02:24.109Z,2.97
2019-02-09T02:04:54.734Z,2.40
2019-02-09T02:07:24.644Z,2.67
2019-02-09T02:09:54.986Z,2.30
2019-02-09T02:12:24.900Z,2.60
2019-02-09T02:14:56.024Z,2.67
2019-02-09T02:17:26.267Z,2.17
2019-02-09T02:19:56.468Z,2.57
2019-02-09T02:22:26.477Z,2.47
2019-02-09T02:24:56.774Z,2.37
2019-02-09T02:27:27.588Z,2.97
2019-02-09T02:29:57.429Z,2.93
2019-02-09T02:32:27.381Z,2.80
2019-02-09T02:34:58.791Z,2.73
2019-02-09T02:37:29.724Z,3.03
2019-02-09T02:39:59.993Z,3.20
2019-02-09T02:42:29.996Z,2.43
2019-02-09T02:45:00.377Z,3.63
2019-02-09T02:47:32.430Z,3.50
2019-02-09T02:50:02.368Z,3.23
2019-02-09T02:52:32.619Z,3.80
2019-02-09T02:55:02.605Z,3.43
2019-02-09T02:57:32.876Z,3.10
2019-02-09T03:00:03.320Z,3.10
2019-02-09T03:02:34.061Z,3.17
2019-02-09T03:05:04.771Z,3.07
2019-02-09T03:07:35.099Z,3.93
2019-02-09T03:10:06.398Z,3.33
2019-02-09T03:12:36.787Z,2.90
2019-02-09T03:15:09.774Z,2.60
2019-02-09T03:17:39.720Z,3.17
2019-02-09T03:20:11.703Z,2.90
2019-02-09T03:22:42.063Z,3.13
2019-02-09T03:25:14.767Z,2.70
2019-02-09T03:27:45.042Z,3.80
2019-02-09T03:30:16.298Z,2.77
2019-02-09T03:32:46.241Z,2.90
2019-02-09T03:35:16.858Z,2.77
2019-02-09T03:37:47.184Z,3.30
2019-02-09T03:40:18.341Z,2.77
2019-02-09T03:42:48.427Z,2.47
2019-02-09T03:45:27.221Z,2.70
2019-02-09T03:47:57.279Z,2.90
2019-02-09T03:50:29.428Z,2.53
2019-02-09T03:53:00.040Z,2.60
2019-02-09T03:55:30.452Z,2.20
2019-02-09T03:58:00.408Z,1.90
2019-02-09T04:00:31.155Z,1.97
2019-02-09T04:03:02.816Z,2.20
2019-02-09T04:05:33.083Z,2.07
2019-02-09T04:08:03.495Z,2.00
2019-02-09T04:10:33.430Z,1.73
2019-02-09T04:13:03.714Z,1.80
2019-02-09T04:15:33.685Z,2.33
2019-02-09T04:18:03.571Z,1.87
2019-02-09T04:20:33.985Z,1.77
2019-02-09T04:23:04.325Z,2.20
2019-02-09T04:25:34.314Z,1.50
2019-02-09T04:28:04.258Z,1.70
2019-02-09T04:30:34.756Z,1.40
2019-02-09T04:33:04.738Z,1.20
2019-02-09T04:35:35.151Z,1.13
2019-02-09T04:38:05.524Z,1.30
2019-02-09T04:40:35.445Z,1.30
2019-02-09T04:43:05.445Z,0.87
2019-02-09T04:45:35.453Z,1.30
2019-02-09T04:48:06.138Z,1.10
2019-02-09T04:50:36.130Z,1.10
2019-02-09T04:53:06.450Z,0.80
2019-02-09T04:55:36.768Z,0.90
2019-02-09T04:58:06.727Z,1.20
2019-02-09T05:00:36.981Z,1.00
2019-02-09T05:03:07.335Z,1.00
2019-02-09T05:05:37.558Z,0.70
2019-02-09T05:08:07.520Z,1.10
2019-02-09T05:10:38.315Z,1.40
2019-02-09T05:13:08.939Z,1.00
2019-02-09T05:15:39.159Z,1.10
2019-02-09T05:18:09.376Z,1.10
2019-02-09T05:20:39.344Z,0.93
2019-02-09T05:23:09.343Z,0.80
2019-02-09T05:25:39.303Z,0.93
2019-02-09T05:28:09.249Z,0.60
2019-02-09T05:30:39.225Z,0.97
2019-02-09T05:33:09.197Z,0.80
2019-02-09T05:35:39.509Z,1.17
2019-02-09T05:38:09.734Z,1.03
2019-02-09T05:40:41.153Z,0.90
2019-02-09T05:43:11.452Z,1.20
2019-02-09T05:45:42.359Z,1.30
2019-02-09T05:48:12.779Z,1.20
2019-02-09T05:50:43.212Z,1.20
2019-02-09T05:53:13.825Z,0.90
2019-02-09T05:55:44.941Z,0.93
2019-02-09T05:58:15.415Z,0.90
2019-02-09T06:00:46.129Z,1.30
2019-02-09T06:03:17.591Z,0.97
2019-02-09T06:05:47.577Z,1.10
2019-02-09T06:08:17.539Z,0.93
2019-02-09T06:10:47.907Z,1.47
2019-02-09T06:13:18.249Z,1.13
2019-02-09T06:15:48.713Z,1.30
2019-02-09T06:18:19.008Z,1.17
2019-02-09T06:20:49.048Z,1.23
2019-02-09T06:23:19.368Z,0.93
2019-02-09T06:25:49.799Z,1.57
2019-02-09T06:28:19.797Z,1.50
2019-02-09T06:30:50.126Z,1.00
2019-02-09T06:33:20.474Z,1.37
2019-02-09T06:35:51.238Z,1.17
2019-02-09T06:38:21.688Z,1.47
2019-02-09T06:40:52.124Z,1.30
2019-02-09T06:43:22.203Z,1.30
2019-02-09T06:45:52.635Z,1.30
2019-02-09T06:48:27.871Z,1.70
2019-02-09T06:50:59.952Z,1.47
2019-02-09T06:53:31.321Z,1.33
2019-02-09T06:56:01.674Z,1.37
2019-02-09T06:58:32.023Z,1.40
2019-02-09T07:01:02.345Z,1.63
2019-02-09T07:03:33.670Z,1.70
2019-02-09T07:06:03.997Z,1.93
2019-02-09T07:08:36.104Z,1.30
2019-02-09T07:11:06.197Z,1.70
2019-02-09T07:13:36.605Z,1.50
2019-02-09T07:16:06.946Z,1.60
2019-02-09T07:18:37.881Z,1.70
2019-02-09T07:21:09.290Z,1.20
2019-02-09T07:23:39.655Z,1.50
2019-02-09T07:26:10.817Z,1.30
2019-02-09T07:28:41.247Z,1.33
2019-02-09T07:31:11.231Z,1.50
2019-02-09T07:33:41.565Z,1.30
2019-02-09T07:36:11.859Z,1.30
2019-02-09T07:38:42.537Z,1.40
2019-02-09T07:41:12.536Z,1.60
2019-02-09T07:43:45.583Z,1.40
2019-02-09T07:46:16.367Z,1.37
2019-02-09T07:48:46.586Z,1.50
2019-02-09T07:51:16.913Z,1.27
2019-02-09T07:53:47.092Z,1.33
2019-02-09T07:56:17.092Z,1.30
2019-02-09T07:58:47.177Z,1.17
2019-02-09T08:01:19.122Z,1.30
2019-02-09T08:03:50.697Z,1.27
2019-02-09T08:06:22.389Z,1.30
2019-02-09T08:08:52.784Z,1.43
2019-02-09T08:11:23.699Z,1.17
2019-02-09T08:13:53.665Z,1.07
2019-02-09T08:16:24.264Z,0.90
2019-02-09T08:18:54.261Z,1.20
2019-02-09T08:21:24.589Z,1.10
2019-02-09T08:23:55.345Z,1.10
2019-02-09T08:26:26.760Z,1.13
2019-02-09T08:28:56.980Z,1.13
2019-02-09T08:31:27.221Z,1.07
2019-02-09T08:33:57.165Z,1.23
2019-02-09T08:36:27.452Z,1.30
2019-02-09T08:38:57.462Z,1.23
2019-02-09T08:41:29.131Z,1.13
2019-02-09T08:43:59.921Z,1.00
2019-02-09T08:46:30.447Z,1.17
2019-02-09T08:49:00.690Z,1.03
2019-02-09T08:51:31.178Z,1.00
2019-02-09T08:54:01.756Z,1.07
2019-02-09T08:56:32.837Z,1.00
2019-02-09T08:59:03.254Z,1.20
2019-02-09T09:01:33.297Z,1.03
2019-02-09T09:04:03.405Z,1.10
2019-02-09T09:06:34.032Z,1.10
2019-02-09T09:09:10.385Z,1.00
2019-02-09T09:11:52.559Z,0.97
2019-02-09T09:14:24.773Z,1.10
2019-02-09T09:16:59.860Z,0.90
2019-02-09T09:19:30.338Z,1.10
2019-02-09T09:22:01.123Z,1.00
2019-02-09T09:24:33.786Z,1.13
2019-02-09T09:27:05.333Z,1.27
2019-02-09T09:29:37.335Z,0.80
2019-02-09T09:32:09.362Z,1.10
2019-02-09T09:34:39.784Z,1.03
2019-02-09T09:37:11.772Z,1.00
2019-02-09T09:39:42.617Z,0.83
2019-02-09T09:42:14.710Z,1.10
2019-02-09T09:44:45.600Z,1.10
2019-02-09T09:47:17.848Z,0.70
2019-02-09T09:49:48.610Z,0.90
2019-02-09T09:52:19.515Z,0.90
2019-02-09T09:54:51.313Z,1.10
2019-02-09T09:57:21.856Z,1.03
2019-02-09T09:59:52.354Z,1.10
2019-02-09T10:02:23.885Z,0.80
2019-02-09T10:04:55.543Z,1.13
2019-02-09T10:07:27.184Z,1.20
2019-02-09T10:09:58.955Z,0.80
2019-02-09T10:12:30.754Z,1.00
2019-02-09T10:15:03.380Z,0.70
2019-02-09T10:17:34.167Z,1.10
2019-02-09T10:20:06.779Z,1.30
2019-02-09T10:22:39.097Z,0.90
2019-02-09T10:25:11.789Z,1.00
2019-02-09T10:27:43.758Z,1.00
2019-02-09T10:30:16.865Z,0.90
2019-02-09T10:32:48.463Z,0.90
2019-02-09T10:35:21.340Z,0.90
2019-02-09T10:37:52.121Z,0.77
2019-02-09T10:40:32.829Z,0.90
2019-02-09T10:43:05.777Z,0.90
2019-02-09T10:45:36.354Z,0.90
2019-02-09T10:48:08.999Z,0.90
2019-02-09T10:50:45.856Z,1.10
2019-02-09T10:53:16.862Z,1.17
2019-02-09T10:55:47.405Z,1.00
2019-02-09T10:58:25.787Z,1.17
2019-02-09T11:01:12.467Z,0.97
2019-02-09T11:03:44.348Z,0.80
2019-02-09T11:06:15.180Z,1.30
2019-02-09T11:08:47.641Z,1.03
2019-02-09T11:11:19.755Z,0.70
2019-02-09T11:13:52.889Z,1.13
2019-02-09T11:16:24.961Z,0.87
2019-02-09T11:18:58.201Z,1.00
2019-02-09T11:21:29.001Z,1.30
2019-02-09T11:24:02.282Z,1.20
2019-02-09T11:26:33.093Z,1.07
2019-02-09T11:29:03.695Z,0.80
2019-02-09T11:31:34.170Z,1.17
2019-02-09T11:34:07.494Z,1.00
2019-02-09T11:36:39.790Z,1.30
2019-02-09T11:39:10.589Z,1.20
2019-02-09T11:41:42.042Z,0.90
2019-02-09T11:44:13.733Z,0.90
2019-02-09T11:46:44.524Z,1.10
2019-02-09T11:49:15.042Z,1.03
2019-02-09T11:51:47.542Z,1.00
2019-02-09T11:54:20.939Z,0.87
2019-02-09T11:56:51.408Z,1.20
2019-02-09T11:59:23.679Z,1.00
2019-02-09T12:01:54.569Z,1.10
2019-02-09T12:04:27.908Z,0.70
2019-02-09T12:06:58.294Z,1.40
2019-02-09T12:09:30.586Z,0.77
2019-02-09T12:12:02.220Z,1.40
2019-02-09T12:14:34.568Z,1.10
2019-02-09T12:17:07.199Z,1.00
2019-02-09T12:19:38.027Z,1.30
2019-02-09T12:22:12.061Z,0.90
2019-02-09T12:24:46.075Z,1.03
2019-02-09T12:27:17.077Z,1.10
2019-02-09T12:29:47.496Z,1.10
2019-02-09T12:32:19.418Z,0.70
2019-02-09T12:34:50.843Z,1.10
2019-02-09T12:37:21.670Z,1.10
2019-02-09T12:39:52.506Z,1.13
2019-02-09T12:42:26.502Z,1.13
2019-02-09T12:44:59.151Z,1.10
2019-02-09T12:47:33.122Z,1.10
2019-02-09T12:50:03.571Z,0.97
2019-02-09T12:52:34.343Z,1.10
2019-02-09T12:55:06.893Z,1.00
2019-02-09T12:57:39.597Z,0.90
2019-02-09T13:00:14.630Z,1.10
2019-02-09T13:02:45.697Z,1.07
2019-02-09T13:05:16.460Z,1.37
2019-02-09T13:07:47.372Z,1.20
2019-02-09T13:10:18.647Z,1.27
2019-02-09T13:12:50.503Z,1.10
2019-02-09T13:15:23.348Z,1.13
2019-02-09T13:17:54.580Z,1.07
2019-02-09T13:20:26.705Z,1.00
2019-02-09T13:22:58.043Z,1.17
2019-02-09T13:25:29.835Z,1.23
2019-02-09T13:28:00.469Z,1.30
2019-02-09T13:30:32.197Z,1.10
2019-02-09T13:33:02.658Z,1.17
2019-02-09T13:35:33.459Z,0.90
2019-02-09T13:38:06.361Z,0.90
2019-02-09T13:40:40.230Z,1.17
2019-02-09T13:43:12.626Z,1.00
2019-02-09T13:45:47.302Z,1.20
2019-02-09T13:48:19.956Z,0.73
2019-02-09T13:50:53.480Z,0.90
2019-02-09T13:53:26.744Z,1.00
2019-02-09T13:55:57.741Z,1.27
2019-02-09T13:58:29.876Z,1.10
2019-02-09T14:01:00.311Z,0.90
2019-02-09T14:03:31.195Z,1.20
2019-02-09T14:06:08.366Z,1.20
2019-02-09T14:08:36.396Z,1.27
2019-02-09T14:11:07.014Z,0.80
2019-02-09T14:13:38.856Z,1.10
2019-02-09T14:16:10.816Z,1.20
2019-02-09T14:18:41.733Z,1.27
2019-02-09T14:21:16.156Z,1.40
2019-02-09T14:23:47.136Z,1.43
2019-02-09T14:26:21.024Z,1.60
2019-02-09T14:28:55.149Z,1.30
2019-02-09T14:31:28.206Z,1.07
2019-02-09T14:34:00.506Z,1.40
2019-02-09T14:36:33.947Z,1.43
2019-02-09T14:39:08.359Z,1.13
2019-02-09T14:41:41.119Z,1.30
2019-02-09T14:44:11.584Z,1.50
2019-02-09T14:46:45.575Z,1.50
2019-02-09T14:49:17.173Z,1.60
2019-02-09T14:51:47.623Z,1.30
2019-02-09T14:54:18.774Z,1.70
2019-02-09T14:56:52.307Z,1.70
2019-02-09T14:59:23.613Z,1.50
2019-02-09T15:01:54.766Z,1.63
2019-02-09T15:04:28.862Z,1.47
2019-02-09T15:07:01.425Z,1.40
2019-02-09T15:09:34.025Z,1.30
2019-02-09T15:12:06.108Z,1.30
2019-02-09T15:14:39.794Z,1.60
2019-02-09T15:17:10.200Z,1.70
2019-02-09T15:19:42.628Z,1.40
2019-02-09T15:22:14.837Z,1.33
2019-02-09T15:24:45.501Z,1.63
2019-02-09T15:27:18.412Z,1.00
2019-02-09T15:29:49.634Z,1.40
2019-02-09T15:32:25.301Z,1.50
2019-02-09T15:34:56.420Z,1.33
2019-02-09T15:37:27.564Z,1.40
2019-02-09T15:40:01.730Z,1.27
2019-02-09T15:42:34.452Z,1.43
2019-02-09T15:45:06.471Z,1.63
2019-02-09T15:47:37.372Z,1.43
2019-02-09T15:50:10.454Z,1.20
2019-02-09T15:52:41.897Z,1.40
2019-02-09T15:55:14.345Z,1.60
2019-02-09T15:57:47.499Z,1.57
2019-02-09T16:00:22.651Z,1.47
2019-02-09T16:02:54.000Z,1.63
2019-02-09T16:05:25.025Z,1.43
2019-02-09T16:07:57.376Z,1.50
2019-02-09T16:10:28.031Z,1.67
2019-02-09T16:13:00.186Z,1.30
2019-02-09T16:15:32.138Z,1.47
2019-02-09T16:18:02.932Z,1.40
2019-02-09T16:20:33.706Z,1.60
2019-02-09T16:23:05.889Z,1.50
2019-02-09T16:25:37.284Z,1.40
2019-02-09T16:28:07.740Z,1.50
2019-02-09T16:30:38.221Z,1.27
2019-02-09T16:33:11.376Z,1.30
2019-02-09T16:35:43.119Z,1.30
2019-02-09T16:38:15.114Z,2.63
2019-02-09T16:40:45.660Z,2.40
2019-02-09T16:43:16.659Z,1.77
2019-02-09T16:45:47.178Z,1.50
2019-02-09T16:48:17.940Z,1.47
2019-02-09T16:50:49.848Z,1.97
2019-02-09T16:53:20.536Z,1.37
2019-02-09T16:55:51.404Z,1.50
2019-02-09T16:58:23.553Z,1.60
2019-02-09T17:00:53.969Z,1.30
2019-02-09T17:03:25.605Z,1.37
2019-02-09T17:05:56.077Z,1.43
2019-02-09T17:08:29.130Z,1.07
2019-02-09T17:11:01.167Z,1.53
2019-02-09T17:13:32.701Z,1.43
2019-02-09T17:16:03.498Z,1.70
2019-02-09T17:18:34.456Z,1.70
2019-02-09T17:21:05.558Z,1.67
2019-02-09T17:23:36.494Z,1.80
2019-02-09T17:26:07.315Z,2.20
2019-02-09T17:28:38.865Z,1.90
2019-02-09T17:31:09.847Z,2.37
2019-02-09T17:33:40.392Z,2.03
2019-02-09T17:36:10.820Z,2.30
2019-02-09T17:38:44.737Z,2.30
2019-02-09T17:41:17.292Z,1.87
2019-02-09T17:43:48.083Z,1.90
2019-02-09T17:46:18.995Z,1.80
2019-02-09T17:48:51.085Z,1.67
2019-02-09T17:51:25.423Z,1.40
2019-02-09T17:54:00.558Z,2.03
2019-02-09T17:56:31.384Z,1.70
2019-02-09T17:59:01.841Z,1.40
2019-02-09T18:01:32.256Z,1.70
2019-02-09T18:04:02.682Z,1.77
2019-02-09T18:06:35.325Z,1.87
2019-02-09T18:09:08.688Z,1.40
2019-02-09T18:11:40.555Z,1.83
2019-02-09T18:14:13.784Z,1.97
2019-02-09T18:16:46.091Z,1.77
2019-02-09T18:19:18.016Z,2.27
2019-02-09T18:21:49.472Z,1.90
2019-02-09T18:24:20.573Z,2.13
2019-02-09T18:26:51.724Z,2.17
2019-02-09T18:29:23.124Z,2.53
2019-02-09T18:31:59.766Z,2.67
2019-02-09T18:34:30.138Z,2.27
2019-02-09T18:37:02.318Z,2.13
2019-02-09T18:39:35.672Z,2.50
2019-02-09T18:42:10.533Z,2.90
2019-02-09T18:44:42.223Z,3.10
2019-02-09T18:47:16.441Z,2.83
2019-02-09T18:49:48.397Z,2.43
2019-02-09T18:52:20.049Z,2.40
2019-02-09T18:54:50.760Z,2.67
2019-02-09T18:57:21.726Z,2.33
2019-02-09T18:59:53.223Z,2.87
2019-02-09T19:02:24.769Z,3.10
2019-02-09T19:04:55.573Z,2.10
2019-02-09T19:07:26.334Z,2.13
2019-02-09T19:09:56.747Z,1.83
2019-02-09T19:12:30.129Z,2.10
2019-02-09T19:15:02.984Z,2.00
2019-02-09T19:17:34.151Z,2.20
2019-02-09T19:20:06.155Z,2.30
2019-02-09T19:22:38.705Z,2.13
2019-02-09T19:25:11.195Z,2.33
2019-02-09T19:27:42.364Z,2.90
2019-02-09T19:30:19.200Z,2.37
2019-02-09T19:32:52.297Z,2.33
2019-02-09T19:35:24.692Z,2.60
2019-02-09T19:37:59.177Z,2.63
2019-02-09T19:40:29.680Z,2.30
2019-02-09T19:43:00.484Z,2.10
2019-02-09T19:45:35.056Z,2.50
2019-02-09T19:48:08.668Z,2.10
2019-02-09T19:50:40.713Z,2.17
2019-02-09T19:53:13.668Z,2.23
2019-02-09T19:55:45.140Z,2.30
2019-02-09T19:58:16.033Z,2.83
2019-02-09T20:00:49.756Z,2.13
2019-02-09T20:03:21.789Z,2.50
2019-02-09T20:05:55.425Z,2.60
2019-02-09T20:08:26.425Z,2.20
2019-02-09T20:10:59.022Z,2.63
2019-02-09T20:13:29.846Z,2.10
2019-02-09T20:16:00.170Z,2.70
2019-02-09T20:18:32.663Z,2.30
2019-02-09T20:21:07.153Z,2.30
2019-02-09T20:23:37.748Z,2.70
2019-02-09T20:26:10.086Z,2.73
2019-02-09T20:28:41.249Z,2.13
2019-02-09T20:31:13.472Z,2.20
2019-02-09T20:33:45.300Z,2.00
2019-02-09T20:36:17.140Z,2.57
2019-02-09T20:38:48.713Z,2.20
2019-02-09T20:41:19.413Z,1.87
2019-02-09T20:43:51.045Z,1.80
2019-02-09T20:46:24.777Z,1.93
2019-02-09T20:48:58.025Z,2.07
2019-02-09T20:51:31.733Z,1.97
2019-02-09T20:54:02.608Z,1.47
2019-02-09T20:56:36.830Z,1.60
2019-02-09T20:59:07.307Z,1.73
2019-02-09T21:01:38.219Z,1.50
2019-02-09T21:04:08.845Z,1.60
2019-02-09T21:06:39.659Z,1.60
2019-02-09T21:09:13.869Z,1.57
2019-02-09T21:11:44.331Z,1.70
2019-02-09T21:14:14.841Z,2.10
2019-02-09T21:16:51.808Z,1.57
2019-02-09T21:19:22.746Z,1.60
2019-02-09T21:21:53.858Z,1.83
2019-02-09T21:24:25.618Z,1.60
2019-02-09T21:26:59.640Z,1.83
2019-02-09T21:29:33.142Z,1.50
2019-02-09T21:32:05.503Z,1.70
2019-02-09T21:34:36.320Z,2.10
2019-02-09T21:37:09.282Z,1.73
2019-02-09T21:39:41.455Z,2.10
2019-02-09T21:42:12.737Z,1.90
2019-02-09T21:44:43.624Z,1.90
2019-02-09T21:47:14.031Z,2.40
2019-02-09T21:49:45.538Z,2.10
2019-02-09T21:52:16.026Z,1.70
2019-02-09T21:54:46.537Z,2.00
2019-02-09T21:57:17.044Z,1.87
2019-02-09T21:59:51.151Z,1.83
2019-02-09T22:02:23.196Z,2.37
2019-02-09T22:04:54.609Z,2.13
2019-02-09T22:07:27.661Z,2.10
2019-02-09T22:09:59.558Z,2.27
2019-02-09T22:12:30.488Z,2.00
2019-02-09T22:15:03.817Z,1.87
2019-02-09T22:17:34.248Z,2.00
2019-02-09T22:20:08.459Z,2.30
2019-02-09T22:22:41.497Z,1.90
2019-02-09T22:25:16.202Z,2.20
2019-02-09T22:27:47.486Z,2.40
2019-02-09T22:30:23.365Z,2.17
2019-02-09T22:32:55.349Z,2.10
2019-02-09T22:35:25.936Z,1.97
2019-02-09T22:37:58.396Z,2.13
2019-02-09T22:40:31.991Z,1.83
2019-02-09T22:43:03.183Z,1.90
2019-02-09T22:45:38.218Z,1.90
2019-02-09T22:48:12.362Z,1.87
2019-02-09T22:50:48.645Z,1.43
2019-02-09T22:53:23.074Z,2.10
2019-02-09T22:55:55.938Z,1.70
2019-02-09T22:58:33.706Z,1.83
2019-02-09T23:01:58.906Z,1.70
2019-02-09T23:05:07.651Z,1.50
2019-02-09T23:07:40.764Z,1.73
2019-02-09T23:10:13.868Z,1.60
2019-02-09T23:12:48.589Z,1.50
2019-02-09T23:15:18.583Z,1.80
2019-02-09T23:17:52.676Z,1.47
2019-02-09T23:20:25.718Z,1.50
2019-02-09T23:23:01.455Z,1.80
2019-02-09T23:25:32.289Z,1.80
2019-02-09T23:28:04.355Z,1.60
2019-02-09T23:30:35.089Z,1.73
2019-02-09T23:33:05.623Z,1.80
2019-02-09T23:35:40.155Z,1.83
2019-02-09T23:38:11.753Z,1.93
2019-02-09T23:40:45.786Z,1.50
2019-02-09T23:43:17.953Z,1.63
2019-02-09T23:45:51.166Z,1.73
2019-02-09T23:48:22.760Z,1.53
2019-02-09T23:50:58.018Z,1.87
2019-02-09T23:53:29.600Z,1.60
2019-02-09T23:56:02.885Z,1.70
2019-02-09T23:58:34.418Z,1.77
